createdAt,value
2023-03-26T00:00:08.468Z,3.89
2023-03-26T00:00:38.794Z,3.89
2023-03-26T00:01:11.481Z,4.01
2023-03-26T00:01:36.072Z,4.01
2023-03-26T00:01:58.688Z,4.01
2023-03-26T00:02:31.445Z,4.01
2023-03-26T00:03:03.101Z,4.01
2023-03-26T00:03:34.944Z,4.01
2023-03-26T00:04:07.147Z,4.01
2023-03-26T00:04:38.781Z,4.01
2023-03-26T00:05:10.965Z,4.01
2023-03-26T00:05:27.337Z,4.01
2023-03-26T00:05:59.411Z,3.85
2023-03-26T00:06:30.723Z,3.85
2023-03-26T00:06:47.553Z,3.85
2023-03-26T00:07:18.793Z,3.85
2023-03-26T00:07:40.030Z,3.85
2023-03-26T00:08:07.154Z,3.85
2023-03-26T00:08:38.596Z,3.95
2023-03-26T00:09:10.908Z,3.95
2023-03-26T00:09:36.252Z,3.95
2023-03-26T00:09:59.147Z,3.95
2023-03-26T00:10:31.259Z,3.95
2023-03-26T00:10:47.132Z,3.95
2023-03-26T00:11:19.123Z,3.95
2023-03-26T00:11:40.076Z,4.12
2023-03-26T00:12:07.414Z,3.95
2023-03-26T00:12:38.628Z,3.95
2023-03-26T00:13:10.595Z,3.95
2023-03-26T00:13:27.162Z,4.12
2023-03-26T00:13:58.772Z,4.12
2023-03-26T00:14:30.799Z,4.12
2023-03-26T00:14:47.463Z,4.12
2023-03-26T00:15:19.711Z,4.12
2023-03-26T00:15:40.125Z,4.12
2023-03-26T00:16:07.156Z,4.01
2023-03-26T00:16:38.606Z,4.01
2023-03-26T00:17:10.714Z,4.12
2023-03-26T00:17:27.392Z,4.12
2023-03-26T00:17:59.794Z,4.12
2023-03-26T00:18:30.803Z,3.95
2023-03-26T00:18:47.095Z,3.95
2023-03-26T00:19:18.634Z,4.12
2023-03-26T00:19:40.066Z,4.12
2023-03-26T00:20:08.335Z,4.12
2023-03-26T00:20:38.843Z,3.95
2023-03-26T00:21:10.480Z,4.12
2023-03-26T00:21:27.076Z,4.12
2023-03-26T00:21:58.713Z,4.12
2023-03-26T00:22:31.375Z,4.12
2023-03-26T00:22:47.130Z,4.12
2023-03-26T00:23:18.754Z,4.12
2023-03-26T00:23:40.421Z,4.12
2023-03-26T00:24:07.099Z,4.12
2023-03-26T00:24:38.584Z,4.12
2023-03-26T00:25:10.925Z,4.12
2023-03-26T00:25:27.623Z,4.12
2023-03-26T00:25:59.076Z,4.12
2023-03-26T00:26:30.896Z,4.12
2023-03-26T00:26:47.209Z,4.12
2023-03-26T00:27:18.659Z,3.95
2023-03-26T00:27:40.078Z,3.95
2023-03-26T00:28:07.072Z,3.95
2023-03-26T00:28:38.676Z,3.95
2023-03-26T00:29:10.520Z,3.95
2023-03-26T00:29:27.182Z,3.95
2023-03-26T00:29:59.356Z,3.95
2023-03-26T00:30:31.763Z,3.95
2023-03-26T00:30:47.377Z,3.95
2023-03-26T00:31:18.696Z,3.95
2023-03-26T00:31:40.007Z,3.95
2023-03-26T00:32:07.663Z,3.95
2023-03-26T00:32:39.085Z,3.95
2023-03-26T00:33:10.821Z,4.12
2023-03-26T00:33:36.089Z,4.12
2023-03-26T00:33:58.755Z,4.12
2023-03-26T00:34:30.933Z,4.12
2023-03-26T00:35:04.243Z,4.12
2023-03-26T00:35:34.627Z,4.12
2023-03-26T00:36:07.309Z,4.12
2023-03-26T00:36:38.661Z,4.12
2023-03-26T00:37:10.643Z,3.95
2023-03-26T00:37:36.411Z,3.95
2023-03-26T00:37:58.801Z,3.95
2023-03-26T00:38:31.005Z,3.95
2023-03-26T00:39:02.907Z,3.95
2023-03-26T00:39:34.802Z,3.95
2023-03-26T00:40:08.023Z,3.79
2023-03-26T00:40:38.608Z,3.90
2023-03-26T00:41:10.751Z,3.90
2023-03-26T00:41:36.091Z,4.06
2023-03-26T00:41:59.148Z,4.06
2023-03-26T00:42:30.825Z,4.06
2023-03-26T00:42:47.275Z,4.06
2023-03-26T00:43:18.710Z,4.06
2023-03-26T00:43:40.071Z,4.06
2023-03-26T00:44:07.257Z,4.06
2023-03-26T00:44:38.708Z,4.06
2023-03-26T00:45:11.539Z,4.22
2023-03-26T00:45:27.220Z,4.22
2023-03-26T00:45:59.670Z,4.22
2023-03-26T00:46:30.939Z,4.22
2023-03-26T00:46:47.263Z,4.22
2023-03-26T00:47:18.667Z,4.22
2023-03-26T00:47:40.518Z,4.22
2023-03-26T00:48:07.146Z,4.22
2023-03-26T00:48:44.973Z,4.22
2023-03-26T00:49:10.827Z,4.22
2023-03-26T00:49:27.105Z,4.22
2023-03-26T00:49:58.840Z,4.12
2023-03-26T00:50:31.195Z,4.12
2023-03-26T00:50:47.367Z,4.12
2023-03-26T00:51:18.572Z,4.12
2023-03-26T00:51:41.108Z,4.12
2023-03-26T00:52:07.570Z,4.12
2023-03-26T00:52:38.659Z,4.12
2023-03-26T00:53:10.566Z,4.12
2023-03-26T00:53:27.913Z,4.12
2023-03-26T00:53:58.839Z,4.12
2023-03-26T00:54:30.868Z,4.12
2023-03-26T00:55:04.582Z,4.12
2023-03-26T00:55:34.635Z,4.12
2023-03-26T00:56:07.276Z,4.12
2023-03-26T00:56:39.041Z,4.28
2023-03-26T00:57:10.728Z,4.28
2023-03-26T00:57:36.804Z,4.12
2023-03-26T00:57:59.519Z,4.17
2023-03-26T00:58:30.698Z,4.17
2023-03-26T00:58:47.670Z,4.17
2023-03-26T00:59:18.856Z,4.17
2023-03-26T00:59:40.325Z,4.17
2023-03-26T01:00:08.650Z,4.17
2023-03-26T01:00:38.715Z,4.17
2023-03-26T01:01:11.476Z,4.17
2023-03-26T01:01:36.317Z,4.17
2023-03-26T01:01:58.780Z,4.17
2023-03-26T01:02:30.788Z,4.17
2023-03-26T01:02:47.215Z,4.17
2023-03-26T01:03:27.571Z,4.17
2023-03-26T01:03:40.392Z,4.17
2023-03-26T01:04:09.264Z,4.17
2023-03-26T01:04:38.699Z,4.17
2023-03-26T01:05:11.012Z,4.17
2023-03-26T01:05:27.685Z,4.17
2023-03-26T01:05:59.501Z,4.17
2023-03-26T01:06:31.126Z,4.33
2023-03-26T01:06:47.137Z,4.33
2023-03-26T01:07:18.749Z,4.33
2023-03-26T01:07:40.035Z,4.33
2023-03-26T01:08:07.087Z,4.33
2023-03-26T01:08:38.586Z,4.21
2023-03-26T01:09:10.817Z,4.21
2023-03-26T01:09:27.144Z,4.21
2023-03-26T01:09:58.943Z,4.21
2023-03-26T01:10:31.239Z,4.21
2023-03-26T01:10:47.154Z,4.21
2023-03-26T01:11:18.706Z,4.21
2023-03-26T01:11:39.999Z,4.21
2023-03-26T01:12:07.192Z,4.21
2023-03-26T01:12:38.556Z,4.21
2023-03-26T01:13:11.018Z,4.21
2023-03-26T01:13:27.232Z,4.21
2023-03-26T01:13:58.748Z,4.21
2023-03-26T01:14:30.953Z,4.21
2023-03-26T01:15:04.896Z,4.21
2023-03-26T01:15:34.690Z,4.11
2023-03-26T01:16:07.180Z,4.11
2023-03-26T01:16:38.655Z,4.11
2023-03-26T01:17:10.604Z,4.11
2023-03-26T01:17:27.188Z,4.11
2023-03-26T01:17:59.124Z,4.26
2023-03-26T01:18:31.309Z,4.26
2023-03-26T01:18:47.383Z,4.11
2023-03-26T01:19:18.741Z,4.26
2023-03-26T01:19:40.150Z,4.26
2023-03-26T01:20:07.820Z,4.26
2023-03-26T01:20:38.954Z,4.21
2023-03-26T01:21:10.644Z,4.21
2023-03-26T01:21:27.086Z,4.21
2023-03-26T01:21:59.127Z,4.21
2023-03-26T01:22:30.837Z,4.21
2023-03-26T01:22:47.289Z,4.21
2023-03-26T01:23:18.709Z,4.21
2023-03-26T01:23:40.009Z,4.21
2023-03-26T01:24:07.070Z,4.21
2023-03-26T01:24:38.620Z,4.21
2023-03-26T01:25:10.966Z,4.21
2023-03-26T01:25:27.144Z,4.21
2023-03-26T01:25:59.907Z,4.21
2023-03-26T01:26:30.760Z,4.21
2023-03-26T01:26:47.146Z,4.21
2023-03-26T01:27:19.168Z,4.21
2023-03-26T01:27:40.168Z,4.21
2023-03-26T01:28:07.042Z,4.21
2023-03-26T01:28:38.525Z,4.10
2023-03-26T01:29:10.532Z,4.10
2023-03-26T01:29:27.118Z,4.10
2023-03-26T01:29:58.879Z,4.10
2023-03-26T01:30:31.774Z,4.10
2023-03-26T01:30:47.231Z,4.10
2023-03-26T01:31:18.961Z,4.10
2023-03-26T01:31:40.180Z,4.10
2023-03-26T01:32:07.102Z,4.10
2023-03-26T01:32:38.861Z,4.10
2023-03-26T01:33:10.739Z,4.10
2023-03-26T01:33:27.307Z,4.10
2023-03-26T01:33:58.788Z,4.10
2023-03-26T01:34:30.818Z,4.10
2023-03-26T01:35:04.377Z,4.10
2023-03-26T01:35:34.563Z,4.10
2023-03-26T01:36:07.189Z,4.10
2023-03-26T01:36:39.464Z,4.10
2023-03-26T01:37:10.888Z,4.10
2023-03-26T01:37:27.295Z,4.10
2023-03-26T01:37:59.541Z,4.10
2023-03-26T01:38:30.810Z,4.10
2023-03-26T01:38:47.223Z,4.10
2023-03-26T01:39:18.670Z,4.10
2023-03-26T01:39:39.978Z,4.10
2023-03-26T01:40:07.854Z,4.10
2023-03-26T01:40:38.758Z,4.10
2023-03-26T01:41:10.595Z,4.10
2023-03-26T01:41:36.205Z,4.10
2023-03-26T01:41:58.860Z,4.10
2023-03-26T01:42:30.780Z,4.10
2023-03-26T01:42:47.386Z,4.10
2023-03-26T01:43:18.904Z,4.10
2023-03-26T01:43:40.325Z,4.10
2023-03-26T01:44:07.134Z,4.10
2023-03-26T01:44:38.623Z,4.10
2023-03-26T01:45:11.449Z,4.10
2023-03-26T01:45:27.676Z,3.95
2023-03-26T01:45:59.210Z,3.95
2023-03-26T01:46:30.892Z,4.06
2023-03-26T01:46:47.784Z,4.06
2023-03-26T01:47:18.684Z,4.06
2023-03-26T01:47:40.403Z,4.06
2023-03-26T01:48:07.171Z,4.06
2023-03-26T01:48:38.578Z,4.06
2023-03-26T01:49:10.518Z,4.06
2023-03-26T01:49:27.220Z,4.06
2023-03-26T01:49:58.739Z,4.11
2023-03-26T01:50:31.430Z,4.11
2023-03-26T01:50:47.429Z,4.11
2023-03-26T01:51:18.594Z,4.11
2023-03-26T01:51:39.933Z,4.11
2023-03-26T01:52:08.338Z,4.11
2023-03-26T01:52:38.565Z,4.11
2023-03-26T01:53:11.679Z,3.94
2023-03-26T01:53:36.147Z,4.11
2023-03-26T01:53:58.836Z,4.11
2023-03-26T01:54:31.130Z,4.11
2023-03-26T01:54:47.313Z,4.11
2023-03-26T01:55:19.454Z,4.06
2023-03-26T01:55:40.133Z,4.06
2023-03-26T01:56:07.305Z,4.06
2023-03-26T01:56:38.818Z,3.89
2023-03-26T01:57:10.614Z,3.89
2023-03-26T01:57:27.254Z,3.89
2023-03-26T01:57:59.039Z,3.89
2023-03-26T01:58:31.112Z,3.89
2023-03-26T01:58:47.283Z,3.89
2023-03-26T01:59:18.660Z,3.89
2023-03-26T01:59:40.029Z,3.89
2023-03-26T02:00:08.406Z,3.94
2023-03-26T02:00:38.667Z,3.94
2023-03-26T02:01:11.856Z,3.94
2023-03-26T02:01:36.153Z,3.94
2023-03-26T02:01:58.778Z,3.94
2023-03-26T02:02:30.878Z,3.94
2023-03-26T02:02:47.555Z,3.94
2023-03-26T02:03:19.068Z,3.94
2023-03-26T02:03:40.222Z,3.94
2023-03-26T02:04:07.138Z,3.94
2023-03-26T02:04:38.579Z,3.94
2023-03-26T02:05:10.984Z,3.94
2023-03-26T02:05:27.821Z,3.94
2023-03-26T02:05:59.842Z,3.94
2023-03-26T02:06:30.888Z,3.94
2023-03-26T02:06:47.253Z,3.94
2023-03-26T02:07:18.690Z,3.94
2023-03-26T02:07:40.024Z,3.94
2023-03-26T02:08:07.035Z,3.78
2023-03-26T02:08:38.792Z,3.78
2023-03-26T02:09:10.577Z,3.78
2023-03-26T02:09:27.086Z,3.78
2023-03-26T02:09:58.735Z,3.78
2023-03-26T02:10:31.775Z,3.89
2023-03-26T02:11:02.713Z,3.89
2023-03-26T02:11:35.997Z,3.89
2023-03-26T02:12:07.031Z,3.89
2023-03-26T02:12:38.836Z,3.89
2023-03-26T02:13:10.514Z,3.89
2023-03-26T02:13:27.172Z,3.89
2023-03-26T02:13:59.458Z,3.89
2023-03-26T02:14:30.824Z,3.89
2023-03-26T02:14:47.485Z,3.89
2023-03-26T02:15:19.661Z,3.89
2023-03-26T02:15:40.108Z,3.89
2023-03-26T02:16:07.087Z,3.89
2023-03-26T02:16:38.996Z,3.89
2023-03-26T02:17:10.521Z,3.89
2023-03-26T02:17:27.093Z,3.89
2023-03-26T02:17:58.811Z,3.89
2023-03-26T02:18:30.752Z,3.89
2023-03-26T02:18:47.252Z,3.89
2023-03-26T02:19:18.907Z,3.89
2023-03-26T02:19:40.376Z,3.89
2023-03-26T02:20:07.792Z,3.89
2023-03-26T02:20:38.562Z,4.01
2023-03-26T02:21:10.580Z,4.01
2023-03-26T02:21:27.140Z,4.01
2023-03-26T02:21:58.897Z,4.01
2023-03-26T02:22:30.921Z,4.01
2023-03-26T02:23:02.673Z,4.01
2023-03-26T02:23:34.673Z,4.01
2023-03-26T02:24:07.096Z,4.01
2023-03-26T02:24:38.700Z,3.85
2023-03-26T02:25:11.007Z,3.85
2023-03-26T02:25:27.157Z,3.85
2023-03-26T02:25:59.494Z,3.95
2023-03-26T02:26:30.868Z,3.95
2023-03-26T02:27:02.632Z,3.95
2023-03-26T02:27:34.490Z,3.95
2023-03-26T02:28:07.082Z,4.12
2023-03-26T02:28:38.622Z,4.12
2023-03-26T02:29:10.564Z,4.06
2023-03-26T02:29:27.243Z,4.06
2023-03-26T02:29:58.818Z,4.06
2023-03-26T02:30:31.821Z,4.06
2023-03-26T02:30:48.171Z,4.06
2023-03-26T02:31:18.661Z,4.22
2023-03-26T02:31:40.184Z,4.22
2023-03-26T02:32:07.109Z,4.06
2023-03-26T02:32:38.769Z,4.06
2023-03-26T02:33:10.548Z,4.06
2023-03-26T02:33:27.156Z,4.06
2023-03-26T02:33:58.713Z,4.06
2023-03-26T02:34:30.747Z,4.06
2023-03-26T02:34:48.405Z,4.06
2023-03-26T02:35:18.990Z,4.06
2023-03-26T02:35:40.190Z,4.06
2023-03-26T02:36:07.319Z,4.06
2023-03-26T02:36:39.386Z,4.06
2023-03-26T02:37:10.483Z,4.06
2023-03-26T02:37:27.061Z,4.06
2023-03-26T02:37:58.618Z,4.06
2023-03-26T02:38:30.900Z,4.06
2023-03-26T02:38:47.223Z,4.06
2023-03-26T02:39:18.729Z,4.06
2023-03-26T02:39:40.032Z,4.06
2023-03-26T02:40:07.843Z,4.06
2023-03-26T02:40:38.562Z,4.06
2023-03-26T02:41:10.618Z,4.06
2023-03-26T02:41:27.373Z,4.22
2023-03-26T02:41:59.002Z,4.22
2023-03-26T02:42:30.716Z,4.22
2023-03-26T02:42:47.356Z,4.22
2023-03-26T02:43:18.906Z,4.06
2023-03-26T02:43:40.182Z,4.06
2023-03-26T02:44:07.081Z,4.06
2023-03-26T02:44:38.606Z,4.06
2023-03-26T02:45:12.016Z,4.06
2023-03-26T02:45:36.742Z,4.06
2023-03-26T02:45:59.277Z,4.06
2023-03-26T02:46:30.939Z,4.06
2023-03-26T02:46:47.207Z,4.06
2023-03-26T02:47:18.714Z,4.11
2023-03-26T02:47:40.135Z,4.11
2023-03-26T02:48:07.167Z,4.11
2023-03-26T02:48:38.831Z,4.11
2023-03-26T02:49:11.313Z,3.95
2023-03-26T02:49:36.074Z,3.95
2023-03-26T02:49:58.731Z,4.11
2023-03-26T02:50:31.245Z,4.11
2023-03-26T02:50:47.198Z,4.11
2023-03-26T02:51:18.794Z,4.11
2023-03-26T02:51:40.076Z,4.11
2023-03-26T02:52:07.148Z,4.11
2023-03-26T02:52:39.724Z,4.11
2023-03-26T02:53:10.625Z,4.11
2023-03-26T02:53:27.257Z,4.11
2023-03-26T02:53:58.570Z,4.11
2023-03-26T02:54:30.755Z,4.11
2023-03-26T02:54:47.266Z,4.11
2023-03-26T02:55:19.065Z,4.11
2023-03-26T02:55:40.009Z,4.11
2023-03-26T02:56:07.255Z,4.11
2023-03-26T02:56:38.734Z,4.11
2023-03-26T02:57:10.700Z,4.11
2023-03-26T02:57:27.259Z,4.11
2023-03-26T02:57:58.891Z,4.11
2023-03-26T02:58:30.943Z,4.11
2023-03-26T02:58:47.274Z,4.11
2023-03-26T02:59:18.740Z,4.11
2023-03-26T02:59:40.127Z,4.11
2023-03-26T03:00:08.380Z,4.11
2023-03-26T03:00:38.820Z,4.11
2023-03-26T03:01:11.189Z,4.11
2023-03-26T03:01:27.220Z,4.11
2023-03-26T03:01:59.154Z,4.27
2023-03-26T03:02:30.868Z,4.11
2023-03-26T03:02:47.348Z,4.27
2023-03-26T03:03:18.950Z,4.27
2023-03-26T03:03:40.101Z,4.27
2023-03-26T03:04:07.162Z,4.27
2023-03-26T03:04:38.545Z,4.27
2023-03-26T03:05:11.357Z,4.27
2023-03-26T03:05:36.134Z,4.27
2023-03-26T03:05:59.705Z,4.22
2023-03-26T03:06:30.779Z,4.22
2023-03-26T03:06:47.305Z,4.22
2023-03-26T03:07:18.668Z,4.22
2023-03-26T03:07:40.246Z,4.39
2023-03-26T03:08:07.187Z,4.39
2023-03-26T03:08:38.889Z,4.39
2023-03-26T03:09:10.539Z,4.39
2023-03-26T03:09:27.271Z,4.39
2023-03-26T03:09:58.791Z,4.28
2023-03-26T03:10:31.864Z,4.44
2023-03-26T03:10:47.637Z,4.44
2023-03-26T03:11:18.745Z,4.44
2023-03-26T03:11:40.098Z,4.44
2023-03-26T03:12:07.222Z,4.44
2023-03-26T03:12:38.597Z,4.44
2023-03-26T03:13:10.695Z,4.33
2023-03-26T03:13:27.165Z,4.33
2023-03-26T03:13:58.653Z,4.33
2023-03-26T03:14:30.851Z,4.33
2023-03-26T03:14:47.663Z,4.33
2023-03-26T03:15:19.748Z,4.33
2023-03-26T03:15:40.174Z,4.33
2023-03-26T03:16:07.615Z,4.33
2023-03-26T03:16:38.581Z,4.33
2023-03-26T03:17:10.604Z,4.48
2023-03-26T03:17:27.245Z,4.48
2023-03-26T03:17:58.772Z,4.36
2023-03-26T03:18:30.844Z,4.36
2023-03-26T03:18:47.273Z,4.36
2023-03-26T03:19:18.699Z,4.36
2023-03-26T03:19:40.029Z,4.36
2023-03-26T03:20:08.174Z,4.36
2023-03-26T03:20:38.598Z,4.36
2023-03-26T03:21:10.864Z,4.36
2023-03-26T03:21:36.154Z,4.36
2023-03-26T03:21:58.594Z,4.26
2023-03-26T03:22:31.009Z,4.26
2023-03-26T03:22:47.203Z,4.26
2023-03-26T03:23:18.753Z,4.26
2023-03-26T03:23:40.059Z,4.26
2023-03-26T03:24:07.138Z,4.26
2023-03-26T03:24:38.636Z,4.37
2023-03-26T03:25:11.464Z,4.37
2023-03-26T03:25:27.234Z,4.21
2023-03-26T03:25:59.288Z,4.37
2023-03-26T03:26:30.871Z,4.37
2023-03-26T03:26:47.602Z,4.37
2023-03-26T03:27:18.842Z,4.37
2023-03-26T03:27:40.057Z,4.37
2023-03-26T03:28:07.108Z,4.37
2023-03-26T03:28:38.620Z,4.37
2023-03-26T03:29:10.528Z,4.37
2023-03-26T03:29:27.249Z,4.37
2023-03-26T03:29:58.745Z,4.37
2023-03-26T03:30:31.740Z,4.37
2023-03-26T03:30:47.354Z,4.37
2023-03-26T03:31:18.812Z,4.37
2023-03-26T03:31:40.028Z,4.37
2023-03-26T03:32:07.179Z,4.37
2023-03-26T03:32:38.699Z,4.37
2023-03-26T03:33:10.577Z,4.37
2023-03-26T03:33:27.426Z,4.37
2023-03-26T03:33:58.618Z,4.37
2023-03-26T03:34:31.000Z,4.37
2023-03-26T03:34:47.232Z,4.37
2023-03-26T03:35:19.064Z,4.37
2023-03-26T03:35:40.163Z,4.37
2023-03-26T03:36:07.067Z,4.37
2023-03-26T03:36:38.735Z,4.37
2023-03-26T03:37:11.607Z,4.37
2023-03-26T03:37:36.808Z,4.37
2023-03-26T03:37:58.758Z,4.37
2023-03-26T03:38:30.889Z,4.37
2023-03-26T03:38:47.250Z,4.37
2023-03-26T03:39:18.668Z,4.37
2023-03-26T03:39:39.964Z,4.37
2023-03-26T03:40:07.872Z,4.37
2023-03-26T03:40:38.603Z,4.37
2023-03-26T03:41:10.489Z,4.37
2023-03-26T03:41:27.198Z,4.37
2023-03-26T03:41:58.619Z,4.37
2023-03-26T03:42:30.820Z,4.37
2023-03-26T03:42:47.206Z,4.37
2023-03-26T03:43:19.487Z,4.37
2023-03-26T03:43:40.083Z,4.37
2023-03-26T03:44:07.124Z,4.37
2023-03-26T03:44:38.582Z,4.37
2023-03-26T03:45:11.750Z,4.37
2023-03-26T03:45:36.340Z,4.37
2023-03-26T03:46:00.099Z,4.37
2023-03-26T03:46:30.944Z,4.37
2023-03-26T03:46:47.104Z,4.37
2023-03-26T03:47:18.735Z,4.37
2023-03-26T03:47:40.285Z,4.37
2023-03-26T03:48:07.132Z,4.37
2023-03-26T03:48:38.673Z,4.37
2023-03-26T03:49:11.694Z,4.37
2023-03-26T03:49:36.829Z,4.37
2023-03-26T03:49:58.671Z,4.37
2023-03-26T03:50:32.969Z,4.37
2023-03-26T03:51:02.622Z,4.37
2023-03-26T03:51:34.844Z,4.37
2023-03-26T03:52:07.094Z,4.37
2023-03-26T03:52:38.622Z,4.37
2023-03-26T03:53:10.711Z,4.37
2023-03-26T03:53:36.850Z,4.37
2023-03-26T03:53:58.670Z,4.37
2023-03-26T03:54:30.905Z,4.37
2023-03-26T03:55:04.047Z,4.37
2023-03-26T03:55:34.609Z,4.37
2023-03-26T03:56:07.172Z,4.37
2023-03-26T03:56:38.593Z,4.37
2023-03-26T03:57:10.592Z,4.37
2023-03-26T03:57:27.389Z,4.37
2023-03-26T03:57:59.849Z,4.37
2023-03-26T03:58:30.733Z,4.37
2023-03-26T03:58:47.244Z,4.37
2023-03-26T03:59:18.648Z,4.37
2023-03-26T03:59:47.850Z,4.37
2023-03-26T04:00:08.450Z,4.37
2023-03-26T04:00:38.695Z,4.53
2023-03-26T04:01:11.339Z,4.53
2023-03-26T04:01:27.692Z,4.53
2023-03-26T04:01:58.615Z,4.53
2023-03-26T04:02:30.853Z,4.53
2023-03-26T04:02:47.288Z,4.53
2023-03-26T04:03:18.866Z,4.53
2023-03-26T04:03:40.180Z,4.53
2023-03-26T04:04:07.188Z,4.53
2023-03-26T04:04:38.674Z,4.53
2023-03-26T04:05:11.036Z,4.53
2023-03-26T04:05:36.161Z,4.53
2023-03-26T04:05:59.087Z,4.53
2023-03-26T04:06:30.732Z,4.53
2023-03-26T04:06:47.138Z,4.53
2023-03-26T04:07:18.879Z,4.53
2023-03-26T04:07:40.101Z,4.53
2023-03-26T04:08:07.166Z,4.53
2023-03-26T04:08:38.694Z,4.53
2023-03-26T04:09:10.693Z,4.53
2023-03-26T04:09:27.412Z,4.53
2023-03-26T04:09:58.770Z,4.42
2023-03-26T04:10:31.634Z,4.42
2023-03-26T04:10:47.452Z,4.42
2023-03-26T04:11:18.781Z,4.42
2023-03-26T04:11:40.251Z,4.42
2023-03-26T04:12:07.175Z,4.42
2023-03-26T04:12:38.579Z,4.42
2023-03-26T04:13:10.551Z,4.53
2023-03-26T04:13:27.169Z,4.42
2023-03-26T04:13:58.675Z,4.42
2023-03-26T04:14:30.851Z,4.53
2023-03-26T04:14:47.284Z,4.53
2023-03-26T04:15:19.713Z,4.53
2023-03-26T04:15:40.213Z,4.53
2023-03-26T04:16:07.364Z,4.53
2023-03-26T04:16:38.671Z,4.53
2023-03-26T04:17:11.007Z,4.53
2023-03-26T04:17:36.119Z,4.53
2023-03-26T04:17:58.726Z,4.53
2023-03-26T04:18:30.852Z,4.53
2023-03-26T04:18:47.996Z,4.53
2023-03-26T04:19:18.966Z,4.37
2023-03-26T04:19:40.067Z,4.37
2023-03-26T04:20:07.810Z,4.37
2023-03-26T04:20:38.684Z,4.37
2023-03-26T04:21:10.689Z,4.37
2023-03-26T04:21:27.758Z,4.37
2023-03-26T04:21:58.665Z,4.37
2023-03-26T04:22:30.903Z,4.37
2023-03-26T04:22:47.542Z,4.37
2023-03-26T04:23:18.887Z,4.37
2023-03-26T04:23:40.328Z,4.37
2023-03-26T04:24:07.160Z,4.37
2023-03-26T04:24:38.993Z,4.37
2023-03-26T04:25:11.971Z,4.37
2023-03-26T04:25:36.137Z,4.37
2023-03-26T04:25:59.017Z,4.37
2023-03-26T04:26:30.720Z,4.37
2023-03-26T04:26:47.307Z,4.37
2023-03-26T04:27:18.861Z,4.37
2023-03-26T04:27:40.387Z,4.37
2023-03-26T04:28:07.173Z,4.37
2023-03-26T04:28:38.573Z,4.37
2023-03-26T04:29:11.826Z,4.37
2023-03-26T04:29:36.321Z,4.42
2023-03-26T04:29:58.706Z,4.42
2023-03-26T04:30:31.674Z,4.42
2023-03-26T04:30:47.380Z,4.42
2023-03-26T04:31:18.881Z,4.42
2023-03-26T04:31:40.114Z,4.42
2023-03-26T04:32:07.305Z,4.37
2023-03-26T04:32:39.287Z,4.37
2023-03-26T04:33:10.635Z,4.37
2023-03-26T04:33:27.260Z,4.37
2023-03-26T04:33:58.706Z,4.37
2023-03-26T04:34:30.801Z,4.37
2023-03-26T04:34:47.202Z,4.37
2023-03-26T04:35:19.265Z,4.37
2023-03-26T04:35:40.373Z,4.37
2023-03-26T04:36:07.305Z,4.37
2023-03-26T04:36:38.902Z,4.37
2023-03-26T04:37:10.582Z,4.37
2023-03-26T04:37:27.310Z,4.37
2023-03-26T04:37:58.684Z,4.37
2023-03-26T04:38:30.784Z,4.37
2023-03-26T04:38:47.284Z,4.37
2023-03-26T04:39:18.722Z,4.37
2023-03-26T04:39:40.104Z,4.37
2023-03-26T04:40:07.970Z,4.37
2023-03-26T04:40:38.702Z,4.37
2023-03-26T04:41:10.974Z,4.37
2023-03-26T04:41:36.116Z,4.37
2023-03-26T04:41:59.307Z,4.37
2023-03-26T04:42:30.827Z,4.37
2023-03-26T04:42:48.149Z,4.37
2023-03-26T04:43:19.081Z,4.37
2023-03-26T04:43:40.239Z,4.37
2023-03-26T04:44:07.103Z,4.37
2023-03-26T04:44:38.703Z,4.53
2023-03-26T04:45:12.053Z,4.37
2023-03-26T04:45:36.267Z,4.37
2023-03-26T04:45:59.159Z,4.37
2023-03-26T04:46:30.823Z,4.37
2023-03-26T04:46:47.408Z,4.42
2023-03-26T04:47:18.722Z,4.42
2023-03-26T04:47:40.367Z,4.42
2023-03-26T04:48:07.199Z,4.42
2023-03-26T04:48:38.845Z,4.42
2023-03-26T04:49:10.615Z,4.42
2023-03-26T04:49:27.215Z,4.42
2023-03-26T04:49:59.070Z,4.42
2023-03-26T04:50:31.328Z,4.42
2023-03-26T04:50:47.364Z,4.42
2023-03-26T04:51:18.706Z,4.42
2023-03-26T04:51:40.049Z,4.42
2023-03-26T04:52:07.114Z,4.42
2023-03-26T04:52:38.570Z,4.42
2023-03-26T04:53:10.624Z,4.42
2023-03-26T04:53:27.179Z,4.42
2023-03-26T04:54:00.003Z,4.42
2023-03-26T04:54:30.814Z,4.42
2023-03-26T04:54:47.151Z,4.42
2023-03-26T04:55:19.282Z,4.42
2023-03-26T04:55:40.174Z,4.42
2023-03-26T04:56:07.157Z,4.42
2023-03-26T04:56:38.602Z,4.42
2023-03-26T04:57:10.676Z,4.42
2023-03-26T04:57:27.150Z,4.42
2023-03-26T04:57:58.656Z,4.42
2023-03-26T04:58:30.770Z,4.42
2023-03-26T04:58:47.311Z,4.42
2023-03-26T04:59:18.739Z,4.42
2023-03-26T04:59:40.170Z,4.42
2023-03-26T05:00:08.548Z,4.42
2023-03-26T05:00:38.660Z,4.42
2023-03-26T05:01:11.424Z,4.31
2023-03-26T05:01:36.320Z,4.31
2023-03-26T05:01:58.713Z,4.31
2023-03-26T05:02:30.999Z,4.31
2023-03-26T05:02:48.152Z,4.31
2023-03-26T05:03:19.053Z,4.31
2023-03-26T05:03:40.168Z,4.31
2023-03-26T05:04:07.298Z,4.31
2023-03-26T05:04:39.161Z,4.31
2023-03-26T05:05:11.174Z,4.31
2023-03-26T05:05:27.819Z,4.31
2023-03-26T05:05:59.270Z,4.31
2023-03-26T05:06:30.939Z,4.31
2023-03-26T05:07:02.689Z,4.31
2023-03-26T05:07:35.664Z,4.31
2023-03-26T05:08:07.187Z,4.31
2023-03-26T05:08:38.691Z,4.31
2023-03-26T05:09:10.800Z,4.31
2023-03-26T05:09:27.513Z,4.31
2023-03-26T05:09:59.511Z,4.31
2023-03-26T05:10:31.549Z,4.31
2023-03-26T05:11:02.946Z,4.31
2023-03-26T05:11:34.778Z,4.31
2023-03-26T05:12:07.363Z,4.31
2023-03-26T05:12:38.850Z,4.31
2023-03-26T05:13:10.676Z,4.42
2023-03-26T05:13:27.516Z,4.42
2023-03-26T05:13:59.379Z,4.42
2023-03-26T05:14:30.864Z,4.42
2023-03-26T05:14:47.543Z,4.42
2023-03-26T05:15:19.896Z,4.42
2023-03-26T05:15:40.352Z,4.42
2023-03-26T05:16:07.221Z,4.42
2023-03-26T05:16:38.881Z,4.42
2023-03-26T05:17:10.988Z,4.42
2023-03-26T05:17:27.394Z,4.42
2023-03-26T05:17:58.931Z,4.42
2023-03-26T05:18:31.069Z,4.42
2023-03-26T05:18:47.519Z,4.42
2023-03-26T05:19:18.924Z,4.42
2023-03-26T05:19:40.307Z,4.42
2023-03-26T05:20:08.246Z,4.42
2023-03-26T05:20:38.901Z,4.42
2023-03-26T05:21:11.197Z,4.42
2023-03-26T05:21:36.883Z,4.42
2023-03-26T05:21:59.397Z,4.42
2023-03-26T05:22:31.098Z,4.42
2023-03-26T05:22:47.760Z,4.42
2023-03-26T05:23:19.077Z,4.42
2023-03-26T05:23:40.337Z,4.42
2023-03-26T05:24:07.355Z,4.42
2023-03-26T05:24:38.841Z,4.42
2023-03-26T05:25:11.206Z,4.42
2023-03-26T05:25:27.381Z,4.42
2023-03-26T05:25:59.270Z,4.42
2023-03-26T05:26:31.008Z,4.42
2023-03-26T05:26:47.917Z,4.42
2023-03-26T05:27:18.919Z,4.42
2023-03-26T05:27:40.285Z,4.42
2023-03-26T05:28:08.104Z,4.42
2023-03-26T05:28:38.878Z,4.42
2023-03-26T05:29:11.133Z,4.42
2023-03-26T05:29:36.660Z,4.42
2023-03-26T05:29:58.993Z,4.42
2023-03-26T05:30:31.850Z,4.42
2023-03-26T05:30:47.655Z,4.42
2023-03-26T05:31:18.944Z,4.42
2023-03-26T05:31:40.407Z,4.42
2023-03-26T05:32:07.892Z,4.42
2023-03-26T05:32:38.902Z,4.26
2023-03-26T05:33:11.521Z,4.26
2023-03-26T05:33:36.686Z,4.26
2023-03-26T05:33:59.683Z,4.26
2023-03-26T05:34:30.991Z,4.26
2023-03-26T05:34:47.560Z,4.26
2023-03-26T05:35:19.521Z,4.26
2023-03-26T05:35:40.401Z,4.26
2023-03-26T05:36:07.587Z,4.26
2023-03-26T05:36:38.921Z,4.26
2023-03-26T05:37:11.361Z,4.26
2023-03-26T05:37:36.469Z,4.10
2023-03-26T05:37:59.188Z,4.21
2023-03-26T05:38:31.160Z,4.21
2023-03-26T05:39:03.371Z,4.21
2023-03-26T05:39:34.811Z,4.21
2023-03-26T05:40:08.355Z,4.21
2023-03-26T05:40:38.917Z,4.21
2023-03-26T05:41:10.847Z,4.11
2023-03-26T05:41:27.592Z,4.11
2023-03-26T05:42:00.272Z,4.11
2023-03-26T05:42:31.037Z,4.11
2023-03-26T05:42:47.817Z,4.11
2023-03-26T05:43:19.014Z,4.11
2023-03-26T05:43:40.311Z,4.11
2023-03-26T05:44:07.643Z,4.11
2023-03-26T05:44:39.039Z,4.21
2023-03-26T05:45:11.855Z,4.36
2023-03-26T05:45:36.488Z,4.21
2023-03-26T05:45:59.312Z,4.21
2023-03-26T05:46:31.171Z,4.21
2023-03-26T05:46:47.573Z,4.21
2023-03-26T05:47:18.852Z,4.21
2023-03-26T05:47:40.373Z,4.21
2023-03-26T05:48:07.465Z,4.21
2023-03-26T05:48:39.040Z,4.21
2023-03-26T05:49:10.779Z,4.21
2023-03-26T05:49:27.588Z,4.21
2023-03-26T05:49:59.214Z,4.21
2023-03-26T05:50:31.414Z,4.21
2023-03-26T05:50:47.602Z,4.21
2023-03-26T05:51:19.054Z,4.21
2023-03-26T05:51:40.538Z,4.21
2023-03-26T05:52:07.902Z,4.21
2023-03-26T05:52:38.953Z,4.21
2023-03-26T05:53:10.933Z,4.21
2023-03-26T05:53:27.480Z,4.21
2023-03-26T05:53:58.919Z,4.21
2023-03-26T05:54:32.046Z,4.21
2023-03-26T05:54:48.871Z,4.21
2023-03-26T05:55:20.018Z,4.21
2023-03-26T05:55:40.403Z,4.21
2023-03-26T05:56:07.424Z,4.21
2023-03-26T05:56:38.906Z,4.21
2023-03-26T05:57:11.504Z,4.21
2023-03-26T05:57:36.835Z,4.21
2023-03-26T05:57:58.857Z,4.33
2023-03-26T05:58:31.074Z,4.33
2023-03-26T05:58:47.469Z,4.33
2023-03-26T05:59:19.100Z,4.33
2023-03-26T05:59:40.472Z,4.33
2023-03-26T06:00:08.721Z,4.33
2023-03-26T06:00:39.067Z,4.33
2023-03-26T06:01:11.471Z,4.33